createdAt,value
2022-11-24T00:01:05.236Z,2.30
2022-11-24T00:03:32.796Z,1.70
2022-11-24T00:06:03.397Z,2.45
2022-11-24T00:08:30.865Z,2.30
2022-11-24T00:11:03.077Z,2.78
2022-11-24T00:13:30.482Z,2.70
2022-11-24T00:16:06.368Z,2.85
2022-11-24T00:18:33.784Z,2.95
2022-11-24T00:21:01.175Z,3.15
2022-11-24T00:23:28.656Z,3.35
2022-11-24T00:25:56.115Z,3.03
2022-11-24T00:28:23.498Z,3.33
2022-11-24T00:30:50.904Z,3.17
2022-11-24T00:33:19.679Z,3.35
2022-11-24T00:35:47.424Z,2.70
2022-11-24T00:38:14.836Z,3.13
2022-11-24T00:40:42.205Z,3.15
2022-11-24T00:43:09.676Z,2.90
2022-11-24T00:45:37.110Z,2.92
2022-11-24T00:48:04.617Z,3.90
2022-11-24T00:50:33.333Z,2.97
2022-11-24T00:53:00.735Z,3.05
2022-11-24T00:55:28.352Z,3.40
2022-11-24T00:57:55.736Z,3.22
2022-11-24T01:00:23.127Z,3.63
2022-11-24T01:02:50.608Z,3.17
2022-11-24T01:05:18.091Z,3.40
2022-11-24T01:07:46.882Z,3.83
2022-11-24T01:10:14.305Z,2.85
2022-11-24T01:12:41.781Z,3.30
2022-11-24T01:15:09.523Z,3.00
2022-11-24T01:17:36.910Z,3.63
2022-11-24T01:20:04.836Z,3.13
2022-11-24T01:22:32.415Z,2.35
2022-11-24T01:25:01.162Z,3.45
2022-11-24T01:27:28.553Z,3.15
2022-11-24T01:29:55.950Z,2.83
2022-11-24T01:32:23.392Z,3.33
2022-11-24T01:34:50.760Z,3.25
2022-11-24T01:37:18.127Z,3.53
2022-11-24T01:39:45.551Z,3.60
2022-11-24T01:42:14.363Z,2.42
2022-11-24T01:44:42.235Z,3.20
2022-11-24T01:47:20.520Z,3.08
2022-11-24T01:49:49.479Z,3.17
2022-11-24T01:52:18.634Z,3.30
2022-11-24T01:54:47.998Z,2.70
2022-11-24T01:57:18.518Z,2.78
2022-11-24T01:59:47.482Z,2.78
2022-11-24T02:02:15.215Z,2.83
2022-11-24T02:04:42.967Z,2.50
2022-11-24T02:07:10.691Z,2.17
2022-11-24T02:09:41.559Z,2.78
2022-11-24T02:12:09.304Z,2.47
2022-11-24T02:14:39.444Z,2.67
2022-11-24T02:17:06.884Z,3.33
2022-11-24T02:19:38.554Z,2.40
2022-11-24T02:22:06.259Z,3.35
2022-11-24T02:24:38.420Z,2.63
2022-11-24T02:27:07.276Z,2.88
2022-11-24T02:29:34.731Z,2.92
2022-11-24T02:32:04.356Z,2.47
2022-11-24T02:34:31.886Z,2.90
2022-11-24T02:36:59.550Z,3.03
2022-11-24T02:39:26.992Z,3.35
2022-11-24T02:41:57.790Z,2.83
2022-11-24T02:44:29.633Z,3.20
2022-11-24T02:47:03.015Z,2.75
2022-11-24T02:49:30.619Z,3.88
2022-11-24T02:51:58.041Z,2.58
2022-11-24T02:54:25.496Z,2.78
2022-11-24T02:56:52.879Z,3.13
2022-11-24T02:59:20.351Z,2.60
2022-11-24T03:01:49.171Z,2.92
2022-11-24T03:04:16.819Z,2.73
2022-11-24T03:06:44.321Z,3.45
2022-11-24T03:09:11.716Z,3.10
2022-11-24T03:11:39.217Z,3.00
2022-11-24T03:14:06.714Z,3.15
2022-11-24T03:16:34.376Z,3.15
2022-11-24T03:19:03.111Z,3.13
2022-11-24T03:21:30.527Z,3.45
2022-11-24T03:23:57.930Z,3.50
2022-11-24T03:26:26.075Z,3.67
2022-11-24T03:28:54.396Z,3.55
2022-11-24T03:31:22.099Z,3.58
2022-11-24T03:33:49.541Z,3.30
2022-11-24T03:36:18.456Z,3.33
2022-11-24T03:38:45.880Z,3.55
2022-11-24T03:41:13.404Z,2.72
2022-11-24T03:43:44.073Z,3.35
2022-11-24T03:46:11.989Z,4.22
2022-11-24T03:48:39.455Z,3.30
2022-11-24T03:51:07.059Z,3.10
2022-11-24T03:53:35.806Z,3.17
2022-11-24T03:56:03.913Z,3.60
2022-11-24T03:58:31.663Z,3.65
2022-11-24T04:00:59.161Z,3.80
2022-11-24T04:03:26.739Z,4.00
2022-11-24T04:05:54.145Z,4.65
2022-11-24T04:08:21.823Z,3.92
2022-11-24T04:10:52.485Z,4.32
2022-11-24T04:13:20.334Z,3.90
2022-11-24T04:15:47.762Z,2.38
2022-11-24T04:18:15.305Z,3.33
2022-11-24T04:20:43.297Z,3.45
2022-11-24T04:23:11.100Z,3.78
2022-11-24T04:25:38.559Z,3.42
2022-11-24T04:28:07.302Z,3.97
2022-11-24T04:30:36.068Z,3.78
2022-11-24T04:33:03.871Z,3.97
2022-11-24T04:35:31.291Z,3.90
2022-11-24T04:37:58.665Z,4.50
2022-11-24T04:40:26.045Z,4.57
2022-11-24T04:42:54.563Z,3.80
2022-11-24T04:45:23.456Z,3.38
2022-11-24T04:47:50.922Z,2.92
2022-11-24T04:50:18.757Z,3.05
2022-11-24T04:52:46.269Z,3.25
2022-11-24T04:55:13.699Z,2.60
2022-11-24T04:57:41.265Z,3.20
2022-11-24T05:00:09.363Z,1.58
2022-11-24T05:02:38.139Z,2.72
2022-11-24T05:05:06.103Z,2.97
2022-11-24T05:07:33.548Z,3.70
2022-11-24T05:10:18.723Z,3.97
2022-11-24T05:12:51.119Z,3.40
2022-11-24T05:15:18.874Z,7.72
2022-11-24T05:17:47.652Z,3.70
2022-11-24T05:20:15.368Z,3.53
2022-11-24T05:22:42.736Z,5.97
2022-11-24T05:25:10.436Z,3.13
2022-11-24T05:27:38.012Z,2.88
2022-11-24T05:30:06.000Z,2.70
2022-11-24T05:32:33.443Z,2.75
2022-11-24T05:35:03.440Z,4.00
2022-11-24T05:37:31.256Z,4.85
2022-11-24T05:39:58.658Z,12.10
2022-11-24T05:42:47.704Z,14.25
2022-11-24T05:45:16.706Z,4.13
2022-11-24T05:47:44.072Z,5.75
2022-11-24T05:50:13.932Z,3.35
2022-11-24T05:55:09.493Z,3.08
2022-11-24T05:57:36.867Z,2.63
2022-11-24T06:00:04.933Z,2.40
2022-11-24T06:02:32.494Z,2.50
2022-11-24T06:04:59.988Z,1.55
2022-11-24T06:07:28.746Z,2.33
2022-11-24T06:09:56.141Z,2.38
2022-11-24T06:12:23.526Z,3.97
2022-11-24T06:14:50.900Z,2.38
2022-11-24T06:17:18.287Z,2.28
2022-11-24T06:19:47.856Z,3.00
2022-11-24T06:22:15.259Z,2.78
2022-11-24T06:24:44.056Z,1.88
2022-11-24T06:27:12.259Z,2.70
2022-11-24T06:29:39.947Z,3.33
2022-11-24T06:32:07.541Z,2.70
2022-11-24T06:34:35.175Z,3.13
2022-11-24T06:37:02.792Z,3.03
2022-11-24T06:39:30.196Z,2.90
2022-11-24T06:41:59.174Z,2.78
2022-11-24T06:44:26.823Z,3.70
2022-11-24T06:46:54.189Z,2.63
2022-11-24T06:49:21.555Z,3.25
2022-11-24T06:51:52.288Z,2.60
2022-11-24T06:54:21.013Z,2.80
2022-11-24T06:56:48.403Z,3.55
2022-11-24T06:59:18.821Z,3.38
2022-11-24T07:01:46.856Z,2.95
2022-11-24T07:04:14.839Z,3.25
2022-11-24T07:06:42.540Z,3.25
2022-11-24T07:09:10.290Z,2.38
2022-11-24T07:11:38.064Z,2.58
2022-11-24T07:14:05.942Z,2.70
2022-11-24T07:16:35.107Z,3.03
2022-11-24T07:19:03.126Z,2.47
2022-11-24T07:21:30.753Z,3.53
2022-11-24T07:23:58.731Z,4.40
2022-11-24T07:26:26.886Z,2.97
2022-11-24T07:28:54.422Z,4.72
2022-11-24T07:31:24.760Z,3.58
2022-11-24T07:33:54.329Z,3.05
2022-11-24T07:36:22.244Z,3.70
2022-11-24T07:38:51.056Z,3.70
2022-11-24T07:41:20.217Z,4.25
2022-11-24T07:43:48.049Z,2.83
2022-11-24T07:46:16.519Z,3.50
2022-11-24T07:48:44.251Z,4.18
2022-11-24T07:51:13.129Z,8.35
2022-11-24T07:53:40.748Z,9.38
2022-11-24T07:56:08.667Z,11.50
2022-11-24T07:58:37.049Z,19.38
2022-11-24T08:01:12.140Z,7.18
2022-11-24T08:03:39.691Z,7.57
2022-11-24T08:06:23.957Z,3.90
2022-11-24T08:08:54.126Z,3.35
2022-11-24T08:11:21.696Z,4.25
2022-11-24T08:13:49.147Z,3.67
2022-11-24T08:16:17.369Z,2.33
2022-11-24T08:18:45.500Z,2.60
2022-11-24T08:21:14.017Z,2.92
2022-11-24T08:23:41.518Z,4.07
2022-11-24T08:26:13.667Z,4.30
2022-11-24T08:28:41.079Z,4.05
2022-11-24T08:31:09.891Z,2.92
2022-11-24T08:33:37.772Z,3.10
2022-11-24T08:36:06.024Z,3.15
2022-11-24T08:38:33.404Z,2.05
2022-11-24T08:41:01.378Z,2.17
2022-11-24T08:43:30.406Z,2.40
2022-11-24T08:46:00.208Z,2.40
2022-11-24T08:50:57.259Z,2.20
2022-11-24T08:53:24.737Z,2.92
2022-11-24T08:55:52.148Z,3.33
2022-11-24T08:58:19.549Z,2.83
2022-11-24T09:00:48.294Z,3.80
2022-11-24T09:03:15.712Z,7.45
2022-11-24T09:05:51.579Z,3.30
2022-11-24T09:08:20.605Z,2.38
2022-11-24T09:10:50.202Z,2.90
2022-11-24T09:13:17.618Z,2.65
2022-11-24T09:15:44.989Z,2.55
2022-11-24T09:18:13.708Z,2.30
2022-11-24T09:20:41.128Z,3.00
2022-11-24T09:23:08.538Z,3.17
2022-11-24T09:25:35.988Z,2.65
2022-11-24T09:28:03.418Z,2.60
2022-11-24T09:30:31.012Z,1.98
2022-11-24T09:32:58.608Z,1.90
2022-11-24T09:35:27.304Z,2.22
2022-11-24T09:37:54.727Z,2.20
2022-11-24T09:40:23.355Z,2.70
2022-11-24T09:42:55.094Z,9.02
2022-11-24T09:45:57.004Z,4.68
2022-11-24T09:48:22.378Z,2.97
2022-11-24T09:50:51.640Z,3.20
2022-11-24T09:53:21.119Z,2.10
2022-11-24T09:55:50.378Z,2.28
2022-11-24T09:58:25.351Z,1.90
2022-11-24T10:00:54.214Z,1.92
2022-11-24T10:03:24.424Z,2.00
2022-11-24T10:05:53.162Z,2.30
2022-11-24T10:08:36.063Z,1.85
2022-11-24T10:11:06.373Z,1.80
2022-11-24T10:13:42.744Z,2.92
2022-11-24T10:16:13.476Z,1.75
2022-11-24T10:18:46.458Z,2.63
2022-11-24T10:21:30.557Z,1.80
2022-11-24T10:24:05.132Z,1.48
2022-11-24T10:26:35.973Z,1.42
2022-11-24T10:29:08.569Z,1.90
2022-11-24T10:31:37.154Z,2.92
2022-11-24T10:34:10.457Z,2.00
2022-11-24T10:36:44.774Z,1.30
2022-11-24T10:39:14.496Z,1.45
2022-11-24T10:41:46.508Z,1.30
2022-11-24T10:44:15.438Z,1.52
2022-11-24T10:46:44.500Z,1.33
2022-11-24T10:49:18.967Z,1.30
2022-11-24T10:51:59.433Z,1.40
2022-11-24T10:54:26.850Z,1.00
2022-11-24T10:56:55.495Z,1.30
2022-11-24T10:59:32.136Z,1.40
2022-11-24T11:02:00.615Z,1.00
2022-11-24T11:04:29.497Z,1.35
2022-11-24T11:07:15.216Z,1.38
2022-11-24T11:09:44.754Z,1.52
2022-11-24T11:12:36.251Z,1.45
2022-11-24T11:15:15.462Z,1.52
2022-11-24T11:17:44.344Z,2.17
2022-11-24T11:20:18.536Z,1.90
2022-11-24T11:22:48.932Z,2.25
2022-11-24T11:25:21.106Z,2.00
2022-11-24T11:27:50.585Z,2.25
2022-11-24T11:36:09.981Z,1.40
2022-11-24T11:38:39.751Z,2.10
2022-11-24T11:43:35.743Z,1.45
2022-11-24T11:46:04.772Z,1.50
2022-11-24T11:48:42.351Z,1.67
2022-11-24T11:51:23.785Z,1.40
2022-11-24T11:53:56.544Z,1.73
2022-11-24T11:56:26.144Z,1.50
2022-11-24T11:59:17.608Z,2.05
2022-11-24T12:01:51.149Z,1.73
2022-11-24T12:04:22.388Z,1.77
2022-11-24T12:07:00.005Z,2.22
2022-11-24T12:09:34.970Z,1.40
2022-11-24T12:12:07.926Z,1.55
2022-11-24T12:14:41.992Z,1.40
2022-11-24T12:17:13.788Z,1.65
2022-11-24T12:19:46.448Z,1.88
2022-11-24T12:22:18.333Z,1.55
2022-11-24T12:24:51.090Z,1.63
2022-11-24T12:27:27.818Z,1.15
2022-11-24T12:30:03.579Z,1.63
2022-11-24T12:32:38.919Z,1.65
2022-11-24T12:35:14.373Z,1.60
2022-11-24T12:37:49.905Z,1.58
2022-11-24T12:40:24.556Z,2.25
2022-11-24T12:42:57.660Z,1.95
2022-11-24T12:45:32.008Z,2.40
2022-11-24T12:48:10.563Z,2.65
2022-11-24T12:50:38.706Z,2.00
2022-11-24T12:53:10.885Z,1.85
2022-11-24T12:55:42.014Z,2.10
2022-11-24T12:58:12.678Z,2.03
2022-11-24T13:00:44.642Z,1.83
2022-11-24T13:03:21.214Z,1.70
2022-11-24T13:05:52.274Z,1.92
2022-11-24T13:08:20.245Z,1.90
2022-11-24T13:10:57.652Z,2.00
2022-11-24T13:13:30.830Z,1.80
2022-11-24T13:16:59.319Z,1.70
2022-11-24T13:19:02.754Z,1.75
2022-11-24T13:21:50.312Z,2.10
2022-11-24T13:24:28.397Z,2.15
2022-11-24T13:27:18.190Z,1.70
2022-11-24T13:32:33.583Z,2.55
2022-11-24T13:35:05.009Z,2.17
2022-11-24T13:37:52.750Z,1.88
2022-11-24T13:40:45.915Z,1.70
2022-11-24T13:43:24.430Z,1.60
2022-11-24T13:48:37.797Z,2.25
2022-11-24T13:51:19.442Z,1.73
2022-11-24T13:53:48.570Z,1.48
2022-11-24T13:56:26.924Z,1.70
2022-11-24T13:58:57.100Z,3.45
2022-11-24T14:01:25.302Z,2.30
2022-11-24T14:07:02.411Z,2.85
2022-11-24T14:09:35.216Z,2.25
2022-11-24T14:12:07.744Z,2.40
2022-11-24T14:14:36.894Z,2.33
2022-11-24T14:17:22.957Z,2.28
2022-11-24T14:19:52.828Z,2.67
2022-11-24T14:22:21.336Z,1.90
2022-11-24T14:24:52.983Z,1.77
2022-11-24T14:27:22.808Z,2.10
2022-11-24T14:32:22.957Z,1.70
2022-11-24T14:34:52.050Z,2.00
2022-11-24T14:37:20.161Z,2.80
2022-11-24T14:39:47.575Z,2.90
2022-11-24T14:42:19.416Z,2.15
2022-11-24T14:44:48.988Z,3.10
2022-11-24T14:47:19.881Z,6.60
2022-11-24T14:49:48.715Z,1.70
2022-11-24T14:52:16.888Z,1.75
2022-11-24T14:54:47.445Z,1.70
2022-11-24T14:57:31.023Z,2.15
2022-11-24T15:00:09.371Z,1.90
2022-11-24T15:02:40.834Z,1.70
2022-11-24T15:05:10.790Z,2.20
2022-11-24T15:07:42.200Z,2.40
2022-11-24T15:10:19.688Z,1.95
2022-11-24T15:12:51.132Z,2.30
2022-11-24T15:15:24.418Z,3.22
2022-11-24T15:17:53.348Z,3.67
2022-11-24T15:20:25.915Z,4.07
2022-11-24T15:23:12.904Z,3.78
2022-11-24T15:25:40.323Z,3.47
2022-11-24T15:28:09.798Z,2.65
2022-11-24T15:30:37.616Z,1.95
2022-11-24T15:33:13.403Z,1.90
2022-11-24T15:35:42.213Z,2.20
2022-11-24T15:38:09.753Z,2.47
2022-11-24T15:40:37.482Z,2.28
2022-11-24T15:43:15.771Z,2.70
2022-11-24T15:45:43.200Z,2.20
2022-11-24T15:48:16.300Z,1.98
2022-11-24T15:50:46.678Z,2.40
2022-11-24T15:53:17.891Z,2.45
2022-11-24T15:55:45.362Z,2.30
2022-11-24T15:58:13.334Z,2.08
2022-11-24T16:00:42.190Z,1.95
2022-11-24T16:03:44.466Z,1.92
2022-11-24T16:05:58.845Z,2.67
2022-11-24T16:08:26.265Z,3.37
2022-11-24T16:10:53.650Z,3.45
2022-11-24T16:13:21.055Z,2.53
2022-11-24T16:15:48.489Z,1.85
2022-11-24T16:18:16.206Z,1.88
2022-11-24T16:20:43.666Z,3.03
2022-11-24T16:23:12.475Z,4.28
2022-11-24T16:25:39.865Z,4.10
2022-11-24T16:28:07.759Z,2.42
2022-11-24T16:30:35.406Z,4.63
2022-11-24T16:33:03.967Z,10.88
2022-11-24T16:35:33.429Z,4.70
2022-11-24T16:38:00.905Z,7.68
2022-11-24T16:40:29.653Z,5.35
2022-11-24T16:42:58.473Z,4.85
2022-11-24T16:45:27.996Z,4.68
2022-11-24T16:47:55.724Z,3.65
2022-11-24T16:50:24.150Z,3.88
2022-11-24T16:52:51.549Z,3.63
2022-11-24T16:55:19.104Z,2.95
2022-11-24T16:57:49.409Z,3.40
2022-11-24T17:00:20.655Z,2.28
2022-11-24T17:02:48.191Z,2.10
2022-11-24T17:05:16.429Z,2.22
2022-11-24T17:07:43.853Z,1.70
2022-11-24T17:10:11.539Z,1.92
2022-11-24T17:12:42.846Z,1.90
2022-11-24T17:18:23.647Z,1.30
2022-11-24T17:20:46.911Z,1.10
2022-11-24T17:23:14.468Z,1.55
2022-11-24T17:25:41.830Z,1.85
2022-11-24T17:28:09.296Z,2.00
2022-11-24T17:30:38.827Z,1.80
2022-11-24T17:33:06.241Z,5.80
2022-11-24T17:35:34.516Z,1.83
2022-11-24T17:38:02.053Z,1.77
2022-11-24T17:40:30.868Z,2.05
2022-11-24T17:42:58.736Z,2.00
2022-11-24T17:45:26.237Z,2.05
2022-11-24T17:47:56.197Z,2.20
2022-11-24T17:50:26.108Z,2.13
2022-11-24T17:52:54.176Z,2.22
2022-11-24T17:55:22.433Z,2.20
2022-11-24T17:57:49.976Z,1.48
2022-11-24T18:00:17.785Z,1.17
2022-11-24T18:02:45.269Z,1.80
2022-11-24T18:05:14.089Z,1.40
2022-11-24T18:07:41.590Z,1.42
2022-11-24T18:10:09.595Z,1.60
2022-11-24T18:12:37.170Z,2.45
2022-11-24T18:15:04.898Z,2.33
2022-11-24T18:17:32.364Z,2.17
2022-11-24T18:19:59.903Z,1.88
2022-11-24T18:22:58.027Z,1.85
2022-11-24T18:25:16.117Z,2.05
2022-11-24T18:27:43.541Z,2.50
2022-11-24T18:30:11.128Z,2.78
2022-11-24T18:32:38.555Z,2.50
2022-11-24T18:35:06.325Z,4.20
2022-11-24T18:37:36.778Z,3.55
2022-11-24T18:40:04.327Z,4.78
2022-11-24T18:42:31.715Z,3.13
2022-11-24T18:44:59.461Z,3.20
2022-11-24T18:47:26.854Z,2.95
2022-11-24T18:49:55.693Z,2.80
2022-11-24T18:52:24.254Z,3.85
2022-11-24T18:54:53.001Z,3.05
2022-11-24T18:57:20.382Z,3.42
2022-11-24T18:59:47.828Z,3.88
2022-11-24T19:02:18.357Z,3.13
2022-11-24T19:04:48.062Z,2.80
2022-11-24T19:07:16.987Z,4.00
2022-11-24T19:09:44.523Z,3.30
2022-11-24T19:12:13.423Z,3.35
2022-11-24T19:14:46.015Z,3.28
2022-11-24T19:17:14.795Z,3.53
2022-11-24T19:19:42.399Z,3.20
2022-11-24T19:22:09.967Z,2.40
2022-11-24T19:24:37.547Z,2.90
2022-11-24T19:27:05.121Z,2.35
2022-11-24T19:29:34.809Z,2.38
2022-11-24T19:32:04.642Z,2.17
2022-11-24T19:34:32.302Z,3.88
2022-11-24T19:36:59.756Z,2.30
2022-11-24T19:39:27.178Z,2.13
2022-11-24T19:41:54.630Z,2.25
2022-11-24T19:44:24.057Z,2.47
2022-11-24T19:46:52.884Z,2.35
2022-11-24T19:49:20.706Z,2.55
2022-11-24T19:51:49.898Z,2.30
2022-11-24T19:54:17.586Z,2.42
2022-11-24T19:56:45.080Z,2.45
2022-11-24T19:59:13.986Z,2.42
2022-11-24T20:01:42.513Z,3.25
2022-11-24T20:04:12.518Z,2.15
2022-11-24T20:09:08.337Z,1.83
2022-11-24T20:11:35.742Z,2.85
2022-11-24T20:14:03.600Z,2.30
2022-11-24T20:16:31.830Z,2.90
2022-11-24T20:19:00.249Z,2.88
2022-11-24T20:21:31.121Z,1.98
2022-11-24T20:23:59.287Z,2.63
2022-11-24T20:26:28.170Z,2.03
2022-11-24T20:28:59.060Z,2.28
2022-11-24T20:31:27.308Z,2.15
2022-11-24T20:33:54.892Z,2.60
2022-11-24T20:36:23.053Z,2.63
2022-11-24T20:38:52.506Z,2.47
2022-11-24T20:41:20.751Z,2.20
2022-11-24T20:43:48.717Z,2.50
2022-11-24T20:46:17.715Z,2.30
2022-11-24T20:48:48.821Z,2.17
2022-11-24T20:51:17.931Z,2.47
2022-11-24T20:53:45.416Z,2.70
2022-11-24T20:56:15.067Z,2.15
2022-11-24T20:58:43.023Z,2.75
2022-11-24T21:01:11.304Z,2.17
2022-11-24T21:03:43.074Z,2.08
2022-11-24T21:06:11.663Z,1.90
2022-11-24T21:08:39.589Z,2.45
2022-11-24T21:11:07.722Z,2.20
2022-11-24T21:13:36.971Z,1.83
2022-11-24T21:16:12.374Z,2.33
2022-11-24T21:18:39.848Z,2.80
2022-11-24T21:21:07.674Z,2.00
2022-11-24T21:23:35.122Z,2.17
2022-11-24T21:26:05.520Z,2.28
2022-11-24T21:28:33.543Z,2.00
2022-11-24T21:31:05.569Z,2.17
2022-11-24T21:33:32.994Z,1.95
2022-11-24T21:36:01.953Z,1.70
2022-11-24T21:38:29.411Z,2.03
2022-11-24T21:40:59.831Z,2.25
2022-11-24T21:43:27.861Z,2.25
2022-11-24T21:45:55.371Z,2.50
2022-11-24T21:48:24.213Z,2.03
2022-11-24T21:50:51.647Z,2.28
2022-11-24T21:53:19.290Z,2.03
2022-11-24T21:55:54.521Z,2.28
2022-11-24T21:58:22.547Z,2.28
2022-11-24T22:00:50.063Z,1.95
2022-11-24T22:03:17.899Z,1.90
2022-11-24T22:05:55.141Z,2.97
2022-11-24T22:08:22.557Z,2.00
2022-11-24T22:10:50.068Z,2.13
2022-11-24T22:13:17.513Z,2.03
2022-11-24T22:15:44.938Z,2.70
2022-11-24T22:18:12.919Z,2.28
2022-11-24T22:20:40.333Z,1.98
2022-11-24T22:23:09.305Z,2.20
2022-11-24T22:25:36.675Z,2.03
2022-11-24T22:28:04.043Z,2.70
2022-11-24T22:30:31.527Z,2.03
2022-11-24T22:32:58.910Z,2.20
2022-11-24T22:35:26.330Z,2.60
2022-11-24T22:37:53.749Z,1.88
2022-11-24T22:40:23.565Z,2.22
2022-11-24T22:42:51.475Z,1.90
2022-11-24T22:45:19.349Z,1.70
2022-11-24T22:47:46.769Z,2.53
2022-11-24T22:50:14.722Z,2.00
2022-11-24T22:52:42.090Z,2.00
2022-11-24T22:55:09.644Z,2.58
2022-11-24T22:57:38.378Z,2.10
2022-11-24T23:00:08.272Z,1.85
2022-11-24T23:05:03.072Z,1.75
2022-11-24T23:07:30.542Z,1.83
2022-11-24T23:09:58.000Z,1.20
2022-11-24T23:12:25.378Z,2.30
2022-11-24T23:14:54.208Z,2.03
2022-11-24T23:17:21.579Z,2.03
2022-11-24T23:19:48.975Z,1.92
2022-11-24T23:22:16.325Z,1.42
2022-11-24T23:24:43.725Z,1.77
2022-11-24T23:27:11.090Z,1.65
2022-11-24T23:29:40.839Z,1.60
2022-11-24T23:32:09.554Z,1.40
2022-11-24T23:34:37.178Z,2.30
2022-11-24T23:37:04.692Z,1.48
2022-11-24T23:39:32.059Z,1.75
2022-11-24T23:41:59.419Z,1.85
2022-11-24T23:44:27.965Z,1.45
2022-11-24T23:46:55.579Z,1.30
2022-11-24T23:49:24.313Z,1.63
2022-11-24T23:51:51.699Z,1.50
2022-11-24T23:54:19.079Z,1.40
2022-11-24T23:56:46.471Z,1.33
2022-11-24T23:59:13.960Z,1.38
